Time;durP1;ratioP1;P1;durP2;ratioP2;P2;SDS_P1;SDS_P2;PMS_P1;PMS_P2;Temp;Humidity;BMP_temperature;BMP_pressure;BME280_temperature;BME280_humidity;BME280_pressure;Samples;Min_cycle;Max_cycle;Signal;HPM_P1;HPM_P2
2023/08/23 00:00:12;;;;;;;4.57;1.27;;;;;;;;;;4986703;28;20663;-78
2023/08/23 00:02:46;;;;;;;6.17;1.77;;;;;;;;;;4986780;28;20452;-77
2023/08/23 00:05:13;;;;;;;3.90;1.80;;;;;;;;;;4985599;28;20971;-78
2023/08/23 00:07:41;;;;;;;5.97;2.33;;;;;;;;;;4981412;28;20893;-80
2023/08/23 00:10:10;;;;;;;4.00;2.00;;;;;;;;;;4983519;28;20518;-80
2023/08/23 00:12:39;;;;;;;4.10;2.43;;;;;;;;;;4987977;28;20908;-80
2023/08/23 00:15:07;;;;;;;3.33;1.60;;;;;;;;;;4994909;28;20520;-80
2023/08/23 00:17:35;;;;;;;4.43;2.00;;;;;;;;;;4996034;28;20805;-81
2023/08/23 00:20:06;;;;;;;4.97;2.80;;;;;;;;;;4995089;28;20788;-80
2023/08/23 00:22:33;;;;;;;5.93;3.77;;;;;;;;;;4994642;28;20532;-80
2023/08/23 00:25:01;;;;;;;5.77;2.97;;;;;;;;;;4995962;28;20493;-80
2023/08/23 00:27:29;;;;;;;5.97;2.30;;;;;;;;;;4995008;28;20469;-80
2023/08/23 00:29:58;;;;;;;4.43;1.60;;;;;;;;;;4991794;28;20452;-81
2023/08/23 00:32:26;;;;;;;9.70;1.70;;;;;;;;;;4985543;28;20528;-79
2023/08/23 00:34:53;;;;;;;4.03;2.10;;;;;;;;;;4988481;28;20654;-81
2023/08/23 00:37:21;;;;;;;4.97;1.43;;;;;;;;;;4993964;28;20455;-81
2023/08/23 00:39:48;;;;;;;4.57;2.53;;;;;;;;;;4993545;28;20520;-79
2023/08/23 00:42:16;;;;;;;5.47;1.83;;;;;;;;;;4994005;28;20453;-81
2023/08/23 00:44:43;;;;;;;3.67;1.60;;;;;;;;;;4993889;28;20537;-80
2023/08/23 00:47:12;;;;;;;3.10;1.70;;;;;;;;;;4993294;28;20453;-81
2023/08/23 00:49:40;;;;;;;2.90;1.40;;;;;;;;;;4995310;28;20516;-81
2023/08/23 00:52:08;;;;;;;3.60;1.73;;;;;;;;;;4992860;28;20483;-81
2023/08/23 00:54:36;;;;;;;4.23;1.70;;;;;;;;;;4993285;28;20548;-79
2023/08/23 00:57:03;;;;;;;4.60;1.40;;;;;;;;;;4994756;28;20421;-79
2023/08/23 00:59:32;;;;;;;5.73;1.93;;;;;;;;;;4996303;28;20484;-80
2023/08/23 01:01:59;;;;;;;4.30;2.00;;;;;;;;;;4991811;28;20528;-79
2023/08/23 01:04:29;;;;;;;3.63;1.73;;;;;;;;;;4992453;28;20492;-79
2023/08/23 01:07:00;;;;;;;4.70;1.70;;;;;;;;;;4993465;28;20468;-80
2023/08/23 01:09:33;;;;;;;6.93;1.80;;;;;;;;;;4985941;28;20894;-79
2023/08/23 01:12:05;;;;;;;3.97;1.93;;;;;;;;;;4986345;28;20449;-80
2023/08/23 01:14:38;;;;;;;3.50;1.60;;;;;;;;;;4985204;28;20484;-80
2023/08/23 01:17:07;;;;;;;4.20;1.90;;;;;;;;;;4991305;28;20457;-81
2023/08/23 01:19:43;;;;;;;4.27;1.83;;;;;;;;;;4992444;28;20461;-81
2023/08/23 01:22:12;;;;;;;4.07;1.80;;;;;;;;;;4992091;28;20452;-81
2023/08/23 01:24:41;;;;;;;4.30;1.63;;;;;;;;;;4993148;28;20473;-81
2023/08/23 01:27:09;;;;;;;5.97;1.43;;;;;;;;;;4992452;28;20453;-77
2023/08/23 01:29:37;;;;;;;3.40;1.67;;;;;;;;;;4992736;28;20489;-81
2023/08/23 01:32:13;;;;;;;4.27;2.00;;;;;;;;;;4997916;28;20437;-82
2023/08/23 01:34:43;;;;;;;3.73;1.67;;;;;;;;;;4993661;28;20460;-81
2023/08/23 01:37:11;;;;;;;6.67;2.20;;;;;;;;;;4985406;28;20465;-82
2023/08/23 01:39:39;;;;;;;7.13;1.90;;;;;;;;;;4986770;28;20465;-82
2023/08/23 01:42:08;;;;;;;4.10;1.70;;;;;;;;;;4991686;28;20454;-81
2023/08/23 01:44:36;;;;;;;4.60;1.90;;;;;;;;;;4992395;28;20493;-80
2023/08/23 01:47:03;;;;;;;5.53;1.70;;;;;;;;;;4992664;28;20449;-82
2023/08/23 01:49:31;;;;;;;5.03;1.73;;;;;;;;;;4985700;28;20896;-81
2023/08/23 01:51:59;;;;;;;4.00;2.13;;;;;;;;;;4985189;28;20568;-82
2023/08/23 01:54:26;;;;;;;5.90;1.97;;;;;;;;;;4986766;28;20472;-81
2023/08/23 01:56:54;;;;;;;4.20;2.37;;;;;;;;;;4992037;28;20561;-80
2023/08/23 01:59:23;;;;;;;5.10;2.30;;;;;;;;;;4993022;28;20515;-80
2023/08/23 02:01:51;;;;;;;4.37;2.13;;;;;;;;;;4992544;28;20461;-78
2023/08/23 02:04:20;;;;;;;5.60;2.50;;;;;;;;;;4991290;28;20495;-80
2023/08/23 02:06:48;;;;;;;5.80;2.87;;;;;;;;;;4982497;28;20461;-81
2023/08/23 02:09:15;;;;;;;5.90;3.30;;;;;;;;;;4984126;28;20465;-80
2023/08/23 02:11:43;;;;;;;5.50;2.60;;;;;;;;;;4985987;28;20453;-77
2023/08/23 02:14:10;;;;;;;5.27;2.67;;;;;;;;;;4984544;28;20457;-78
2023/08/23 02:16:39;;;;;;;5.30;2.83;;;;;;;;;;4993908;28;20449;-79
2023/08/23 02:19:07;;;;;;;9.20;3.23;;;;;;;;;;4995735;28;20457;-81
2023/08/23 02:21:35;;;;;;;5.43;3.10;;;;;;;;;;4996486;28;20461;-81
2023/08/23 02:24:03;;;;;;;6.50;2.57;;;;;;;;;;4997880;28;20564;-79
2023/08/23 02:26:30;;;;;;;6.03;2.70;;;;;;;;;;4993566;28;20461;-82
2023/08/23 02:29:01;;;;;;;7.20;5.03;;;;;;;;;;4987234;28;20457;-82
2023/08/23 02:31:29;;;;;;;4.87;2.87;;;;;;;;;;4984249;28;20749;-80
2023/08/23 02:34:01;;;;;;;4.90;3.43;;;;;;;;;;4984801;28;20721;-81
2023/08/23 02:36:28;;;;;;;6.17;3.60;;;;;;;;;;4991227;28;20464;-81
2023/08/23 02:38:56;;;;;;;5.07;3.07;;;;;;;;;;4990872;28;20456;-80
2023/08/23 02:41:24;;;;;;;5.93;3.10;;;;;;;;;;4990102;28;20819;-81
2023/08/23 02:43:51;;;;;;;8.10;4.17;;;;;;;;;;4992223;28;20893;-81
2023/08/23 02:46:19;;;;;;;5.37;2.90;;;;;;;;;;4983279;28;20464;-80
2023/08/23 02:48:47;;;;;;;6.10;3.40;;;;;;;;;;4982495;28;20444;-81
2023/08/23 02:51:16;;;;;;;6.10;2.70;;;;;;;;;;4983619;28;20448;-81
2023/08/23 02:53:44;;;;;;;6.50;3.00;;;;;;;;;;4983336;28;20497;-81
2023/08/23 02:56:11;;;;;;;5.80;2.70;;;;;;;;;;4984997;28;20461;-81
2023/08/23 02:58:39;;;;;;;5.53;2.83;;;;;;;;;;4984968;28;20528;-81
2023/08/23 03:01:08;;;;;;;6.50;2.17;;;;;;;;;;4988382;28;20465;-81
2023/08/23 03:03:35;;;;;;;4.80;3.33;;;;;;;;;;4985693;28;20456;-81
2023/08/23 03:06:03;;;;;;;5.23;2.60;;;;;;;;;;4990013;28;20488;-79
2023/08/23 03:08:32;;;;;;;8.80;4.97;;;;;;;;;;4990288;28;20461;-80
2023/08/23 03:11:04;;;;;;;9.67;4.67;;;;;;;;;;4988687;28;20539;-81
2023/08/23 03:13:32;;;;;;;12.80;5.43;;;;;;;;;;4990248;28;20457;-80
2023/08/23 03:16:00;;;;;;;6.23;4.60;;;;;;;;;;4990653;28;20456;-80
2023/08/23 03:18:28;;;;;;;9.47;4.60;;;;;;;;;;4989724;28;20450;-80
2023/08/23 03:20:55;;;;;;;11.13;4.37;;;;;;;;;;4991801;28;20505;-79
2023/08/23 03:23:26;;;;;;;9.77;4.10;;;;;;;;;;4989308;28;20525;-78
2023/08/23 03:25:56;;;;;;;8.87;5.00;;;;;;;;;;4989240;28;20504;-81
2023/08/23 03:28:23;;;;;;;6.17;3.73;;;;;;;;;;4990949;28;20464;-79
2023/08/23 03:30:51;;;;;;;7.80;4.80;;;;;;;;;;4989254;28;20587;-80
2023/08/23 03:33:19;;;;;;;7.60;5.23;;;;;;;;;;4990938;28;20486;-80
2023/08/23 03:35:53;;;;;;;9.20;5.33;;;;;;;;;;4980996;28;20468;-79
2023/08/23 03:38:21;;;;;;;10.87;5.47;;;;;;;;;;4980644;28;20470;-80
2023/08/23 03:40:48;;;;;;;9.83;6.20;;;;;;;;;;4988022;28;20456;-80
2023/08/23 03:43:18;;;;;;;7.37;5.00;;;;;;;;;;4989132;28;20461;-80
2023/08/23 03:45:47;;;;;;;11.13;6.70;;;;;;;;;;4991440;28;20484;-80
2023/08/23 03:48:15;;;;;;;8.80;5.43;;;;;;;;;;4993658;28;20445;-81
2023/08/23 03:50:43;;;;;;;8.37;4.57;;;;;;;;;;4992416;28;20484;-79
2023/08/23 03:53:10;;;;;;;7.77;5.30;;;;;;;;;;4992182;28;20480;-77
2023/08/23 03:55:38;;;;;;;8.43;5.77;;;;;;;;;;4986358;28;20453;-80
2023/08/23 03:58:06;;;;;;;11.43;5.03;;;;;;;;;;4986747;28;20457;-82
2023/08/23 04:00:36;;;;;;;11.20;5.87;;;;;;;;;;4985881;28;20468;-80
2023/08/23 04:03:04;;;;;;;4.27;3.30;;;;;;;;;;4984921;28;20449;-80
2023/08/23 04:05:32;;;;;;;9.10;3.90;;;;;;;;;;4986352;28;20579;-79
2023/08/23 04:07:59;;;;;;;6.63;3.80;;;;;;;;;;4985110;28;20552;-81
2023/08/23 04:10:27;;;;;;;11.33;4.37;;;;;;;;;;4985022;28;20812;-80
2023/08/23 04:12:55;;;;;;;11.10;4.40;;;;;;;;;;4986264;28;20460;-79
2023/08/23 04:15:22;;;;;;;9.50;4.90;;;;;;;;;;4996881;28;20445;-79
2023/08/23 04:17:51;;;;;;;6.90;3.93;;;;;;;;;;4994310;28;20449;-78
2023/08/23 04:20:19;;;;;;;7.60;4.60;;;;;;;;;;4995880;28;20447;-81
2023/08/23 04:22:47;;;;;;;9.40;4.10;;;;;;;;;;4988488;28;20467;-81
2023/08/23 04:25:15;;;;;;;8.20;3.17;;;;;;;;;;4991650;28;20520;-80
2023/08/23 04:27:43;;;;;;;7.33;4.73;;;;;;;;;;4995840;28;20453;-81
2023/08/23 04:30:11;;;;;;;8.20;3.10;;;;;;;;;;4994908;28;20449;-81
2023/08/23 04:32:44;;;;;;;8.33;3.70;;;;;;;;;;4992192;28;20453;-79
2023/08/23 04:35:14;;;;;;;8.10;3.03;;;;;;;;;;4995256;28;20461;-80
2023/08/23 04:37:42;;;;;;;7.10;3.93;;;;;;;;;;4997011;28;20464;-79
2023/08/23 04:40:13;;;;;;;7.70;3.93;;;;;;;;;;4994440;28;20469;-78
2023/08/23 04:42:41;;;;;;;12.10;5.90;;;;;;;;;;4994393;28;20496;-80
2023/08/23 04:45:09;;;;;;;10.47;4.60;;;;;;;;;;4987283;28;20940;-79
2023/08/23 04:47:37;;;;;;;7.10;3.43;;;;;;;;;;4984282;28;20531;-79
2023/08/23 04:50:08;;;;;;;7.50;4.53;;;;;;;;;;4983231;28;20873;-81
2023/08/23 04:52:39;;;;;;;7.17;4.37;;;;;;;;;;4981458;28;20501;-82
2023/08/23 04:55:09;;;;;;;7.43;4.60;;;;;;;;;;4981761;28;20456;-81
2023/08/23 04:57:37;;;;;;;7.90;5.10;;;;;;;;;;4981164;28;20460;-79
2023/08/23 05:00:08;;;;;;;9.07;5.00;;;;;;;;;;4982440;28;20460;-81
2023/08/23 05:02:36;;;;;;;7.30;4.60;;;;;;;;;;4982571;28;20471;-81
2023/08/23 05:05:11;;;;;;;8.43;4.50;;;;;;;;;;4986789;28;20484;-81
2023/08/23 05:07:40;;;;;;;8.50;5.03;;;;;;;;;;4991423;28;20464;-79
2023/08/23 05:10:11;;;;;;;9.30;5.30;;;;;;;;;;4991810;28;20461;-80
2023/08/23 05:12:39;;;;;;;6.97;4.50;;;;;;;;;;4990264;28;20480;-80
2023/08/23 05:15:08;;;;;;;8.57;5.53;;;;;;;;;;4989162;28;20530;-79
2023/08/23 05:17:35;;;;;;;7.90;5.20;;;;;;;;;;4988823;28;20483;-80
2023/08/23 05:20:07;;;;;;;9.50;6.30;;;;;;;;;;4991566;28;20693;-79
2023/08/23 05:22:35;;;;;;;9.30;5.40;;;;;;;;;;4988805;28;20694;-79
2023/08/23 05:25:04;;;;;;;7.93;5.77;;;;;;;;;;4990971;28;20473;-81
2023/08/23 05:27:31;;;;;;;7.30;4.90;;;;;;;;;;4981243;28;20437;-79
2023/08/23 05:30:01;;;;;;;7.97;5.10;;;;;;;;;;4983075;28;20449;-80
2023/08/23 05:32:34;;;;;;;9.13;4.17;;;;;;;;;;4980187;28;20444;-80
2023/08/23 05:35:03;;;;;;;9.30;3.80;;;;;;;;;;4983763;28;20448;-77
2023/08/23 05:37:30;;;;;;;5.40;4.00;;;;;;;;;;4987912;28;20528;-79
2023/08/23 05:39:58;;;;;;;6.20;4.17;;;;;;;;;;4988005;28;20484;-80
2023/08/23 05:42:27;;;;;;;6.17;4.53;;;;;;;;;;4991168;28;20441;-79
2023/08/23 05:44:55;;;;;;;7.23;5.00;;;;;;;;;;4990142;28;20469;-79
2023/08/23 05:47:23;;;;;;;6.10;3.83;;;;;;;;;;4990410;28;20465;-79
2023/08/23 05:49:50;;;;;;;7.53;4.70;;;;;;;;;;4987961;28;20457;-79
2023/08/23 05:52:18;;;;;;;9.10;5.33;;;;;;;;;;4987554;28;20465;-79
2023/08/23 05:54:46;;;;;;;7.90;4.50;;;;;;;;;;4986681;28;20452;-79
2023/08/23 05:57:14;;;;;;;6.63;4.30;;;;;;;;;;4978505;28;20485;-79
2023/08/23 05:59:43;;;;;;;7.50;4.53;;;;;;;;;;4983981;28;20760;-80
2023/08/23 06:02:11;;;;;;;6.03;4.90;;;;;;;;;;4982895;28;20741;-78
2023/08/23 06:04:39;;;;;;;7.30;4.30;;;;;;;;;;4985083;28;20514;-79
2023/08/23 06:07:06;;;;;;;7.00;4.57;;;;;;;;;;4986083;28;20530;-79
2023/08/23 06:09:34;;;;;;;12.13;4.93;;;;;;;;;;4980528;28;20544;-80
2023/08/23 06:12:02;;;;;;;9.27;5.00;;;;;;;;;;4961316;29;20458;-80
2023/08/23 06:14:30;;;;;;;9.17;3.80;;;;;;;;;;4966173;29;20501;-80
2023/08/23 06:16:59;;;;;;;6.57;3.70;;;;;;;;;;4966939;29;20445;-80
2023/08/23 06:19:27;;;;;;;7.30;4.03;;;;;;;;;;4964493;29;20645;-79
2023/08/23 06:21:55;;;;;;;8.17;3.47;;;;;;;;;;4964954;29;20470;-79
2023/08/23 06:24:22;;;;;;;4.93;3.50;;;;;;;;;;4962077;29;20442;-80
2023/08/23 06:26:50;;;;;;;4.80;2.90;;;;;;;;;;4956386;28;20490;-80
2023/08/23 06:29:18;;;;;;;7.37;3.50;;;;;;;;;;4959428;28;20776;-80
2023/08/23 06:31:46;;;;;;;10.00;3.60;;;;;;;;;;4965847;29;20437;-79
2023/08/23 06:34:18;;;;;;;5.10;3.10;;;;;;;;;;4964960;29;20462;-79
2023/08/23 06:36:46;;;;;;;5.60;2.77;;;;;;;;;;4958352;28;20841;-80
2023/08/23 06:39:14;;;;;;;3.93;2.23;;;;;;;;;;4959675;29;20890;-78
2023/08/23 06:41:42;;;;;;;5.97;2.87;;;;;;;;;;4960813;29;20614;-80
2023/08/23 06:44:10;;;;;;;6.97;3.20;;;;;;;;;;4966876;28;20434;-78
2023/08/23 06:46:49;;;;;;;6.83;2.97;;;;;;;;;;4971679;28;20486;-78
2023/08/23 06:49:21;;;;;;;8.97;2.80;;;;;;;;;;4969516;28;20549;-79
2023/08/23 06:51:49;;;;;;;7.97;2.97;;;;;;;;;;4971868;28;20912;-81
2023/08/23 06:54:17;;;;;;;7.23;2.63;;;;;;;;;;4963875;28;20462;-80
2023/08/23 06:56:45;;;;;;;10.73;3.60;;;;;;;;;;4961471;29;20888;-80
2023/08/23 06:59:20;;;;;;;4.93;2.83;;;;;;;;;;4962576;28;20465;-80
2023/08/23 07:01:48;;;;;;;4.37;3.17;;;;;;;;;;4962284;28;20493;-79
2023/08/23 07:04:16;;;;;;;5.00;3.77;;;;;;;;;;4966049;28;20461;-78
2023/08/23 07:07:14;;;;;;;10.73;3.57;;;;;;;;;;4983427;28;20484;-81
2023/08/23 07:10:06;;;;;;;4.33;2.93;;;;;;;;;;4991364;28;20448;-81
2023/08/23 07:12:39;;;;;;;7.40;2.80;;;;;;;;;;4974301;28;20488;-79
2023/08/23 07:18:11;;;;;;;4.77;2.60;;;;;;;;;;4989798;28;20794;-79
2023/08/23 07:20:39;;;;;;;4.63;2.30;;;;;;;;;;4980458;28;20480;-79
2023/08/23 07:23:07;;;;;;;4.43;2.13;;;;;;;;;;4981561;28;20457;-80
2023/08/23 07:25:34;;;;;;;6.37;2.33;;;;;;;;;;4977773;28;20496;-79
2023/08/23 07:28:04;;;;;;;4.20;2.17;;;;;;;;;;4979628;28;20453;-79
2023/08/23 07:30:33;;;;;;;3.67;1.80;;;;;;;;;;4981136;28;20506;-79
2023/08/23 07:33:01;;;;;;;4.70;1.90;;;;;;;;;;4981360;28;20457;-80
2023/08/23 07:35:30;;;;;;;3.73;1.77;;;;;;;;;;4980678;28;20472;-80
2023/08/23 07:37:57;;;;;;;3.50;1.87;;;;;;;;;;4981664;28;21902;-79
2023/08/23 07:40:27;;;;;;;5.33;1.43;;;;;;;;;;4967985;28;20517;-78
2023/08/23 07:43:03;;;;;;;3.40;1.43;;;;;;;;;;4971594;28;21116;-78
2023/08/23 07:45:32;;;;;;;4.47;1.43;;;;;;;;;;4983032;28;20472;-79
2023/08/23 07:48:00;;;;;;;3.47;2.53;;;;;;;;;;4981066;28;20476;-79
2023/08/23 07:50:28;;;;;;;3.50;1.47;;;;;;;;;;4982447;28;20456;-78
2023/08/23 07:52:56;;;;;;;9.30;1.70;;;;;;;;;;4983055;28;21023;-78
2023/08/23 07:55:25;;;;;;;6.83;1.50;;;;;;;;;;4983890;28;20547;-80
2023/08/23 07:57:52;;;;;;;4.20;1.40;;;;;;;;;;4983405;28;20468;-79
2023/08/23 08:00:24;;;;;;;4.30;1.93;;;;;;;;;;4990238;28;20545;-79
2023/08/23 08:02:55;;;;;;;2.57;1.30;;;;;;;;;;4964670;28;20544;-80
2023/08/23 08:05:23;;;;;;;7.20;1.50;;;;;;;;;;4982871;28;20532;-79
2023/08/23 08:07:55;;;;;;;3.43;1.40;;;;;;;;;;4981719;28;20460;-79
2023/08/23 08:10:27;;;;;;;3.83;2.40;;;;;;;;;;4984008;28;20453;-79
2023/08/23 08:12:54;;;;;;;4.93;1.70;;;;;;;;;;4985438;28;20462;-78
2023/08/23 08:15:22;;;;;;;2.70;1.60;;;;;;;;;;4984968;28;20456;-79
2023/08/23 08:17:51;;;;;;;3.77;1.53;;;;;;;;;;4985005;28;20453;-80
2023/08/23 08:20:25;;;;;;;3.10;1.23;;;;;;;;;;4988137;28;20445;-81
2023/08/23 08:22:55;;;;;;;3.17;1.50;;;;;;;;;;4981104;28;20464;-79
2023/08/23 08:25:24;;;;;;;4.10;1.30;;;;;;;;;;4980589;28;20888;-81
2023/08/23 08:27:52;;;;;;;3.13;0.90;;;;;;;;;;4983612;28;20609;-79
2023/08/23 08:30:20;;;;;;;2.80;1.23;;;;;;;;;;4983597;28;20865;-80
2023/08/23 08:32:48;;;;;;;3.80;1.07;;;;;;;;;;5001733;28;20469;-77
2023/08/23 08:35:17;;;;;;;2.70;1.23;;;;;;;;;;4989609;28;20457;-78
2023/08/23 08:37:47;;;;;;;2.97;1.03;;;;;;;;;;4986264;28;20487;-79
2023/08/23 08:40:18;;;;;;;3.17;1.37;;;;;;;;;;4985908;28;20465;-79
2023/08/23 08:42:48;;;;;;;2.47;1.20;;;;;;;;;;4987606;28;20496;-80
2023/08/23 08:45:15;;;;;;;2.70;1.13;;;;;;;;;;4981779;28;20476;-79
2023/08/23 08:47:45;;;;;;;3.23;1.20;;;;;;;;;;4983576;28;20556;-80
2023/08/23 08:50:14;;;;;;;3.00;1.20;;;;;;;;;;4985629;28;20449;-79
2023/08/23 08:52:43;;;;;;;4.37;2.00;;;;;;;;;;4987128;28;21231;-78
2023/08/23 08:55:17;;;;;;;4.40;1.43;;;;;;;;;;4986095;28;20467;-79
2023/08/23 08:57:46;;;;;;;3.40;1.60;;;;;;;;;;4987837;28;21181;-81
2023/08/23 09:00:17;;;;;;;3.77;1.00;;;;;;;;;;4986780;28;20500;-80
2023/08/23 09:02:51;;;;;;;3.50;1.43;;;;;;;;;;4988987;28;20561;-79
2023/08/23 09:05:20;;;;;;;4.70;1.40;;;;;;;;;;4985609;28;20501;-79
2023/08/23 09:07:49;;;;;;;4.70;1.83;;;;;;;;;;4980559;28;20537;-81
2023/08/23 09:10:24;;;;;;;8.20;1.50;;;;;;;;;;4985321;28;20475;-81
2023/08/23 09:12:53;;;;;;;3.50;1.20;;;;;;;;;;4981359;28;20479;-81
2023/08/23 09:15:29;;;;;;;4.10;1.50;;;;;;;;;;4991727;28;20462;-81
2023/08/23 09:18:00;;;;;;;3.63;1.40;;;;;;;;;;4981823;28;20469;-77
2023/08/23 09:20:29;;;;;;;3.37;1.33;;;;;;;;;;4974397;28;20457;-79
2023/08/23 09:23:06;;;;;;;3.20;1.23;;;;;;;;;;4988639;28;20494;-79
2023/08/23 09:25:37;;;;;;;2.77;1.33;;;;;;;;;;4981385;28;20464;-81
2023/08/23 09:28:06;;;;;;;3.83;1.70;;;;;;;;;;4975627;28;20508;-79
2023/08/23 09:30:39;;;;;;;5.23;1.10;;;;;;;;;;4985373;28;20469;-78
2023/08/23 09:33:07;;;;;;;4.23;1.07;;;;;;;;;;4978948;28;20474;-81
2023/08/23 09:35:35;;;;;;;3.13;1.23;;;;;;;;;;4971493;29;20533;-79
2023/08/23 09:38:06;;;;;;;2.40;0.90;;;;;;;;;;4978501;28;20481;-79
2023/08/23 09:40:37;;;;;;;3.07;1.00;;;;;;;;;;4984804;28;20476;-80
2023/08/23 09:43:06;;;;;;;2.73;0.97;;;;;;;;;;4982848;28;20457;-81
2023/08/23 09:45:42;;;;;;;2.67;0.90;;;;;;;;;;4987626;28;20540;-81
2023/08/23 09:48:11;;;;;;;2.30;0.70;;;;;;;;;;4987548;28;21018;-80
2023/08/23 09:50:39;;;;;;;3.10;1.10;;;;;;;;;;4988332;28;20495;-81
2023/08/23 09:53:07;;;;;;;3.10;1.30;;;;;;;;;;4982238;28;20496;-81
2023/08/23 09:55:37;;;;;;;3.00;0.93;;;;;;;;;;4987445;28;20461;-81
2023/08/23 09:58:06;;;;;;;2.70;1.10;;;;;;;;;;4980193;28;20543;-79
2023/08/23 10:00:36;;;;;;;2.90;0.80;;;;;;;;;;4985119;28;20467;-79
2023/08/23 10:03:05;;;;;;;3.93;1.10;;;;;;;;;;4980781;28;20461;-79
2023/08/23 10:05:33;;;;;;;2.30;0.87;;;;;;;;;;4979364;28;20455;-79
2023/08/23 10:08:07;;;;;;;2.30;0.80;;;;;;;;;;4985445;28;20626;-79
2023/08/23 10:10:40;;;;;;;2.10;0.83;;;;;;;;;;4964967;28;20532;-80
2023/08/23 10:13:14;;;;;;;2.63;1.03;;;;;;;;;;4980473;28;20457;-79
2023/08/23 10:15:43;;;;;;;2.27;0.80;;;;;;;;;;4985808;28;20500;-79
2023/08/23 10:18:13;;;;;;;3.23;1.10;;;;;;;;;;4982581;28;20461;-81
2023/08/23 10:20:43;;;;;;;2.93;0.83;;;;;;;;;;4980831;28;20448;-80
2023/08/23 10:23:12;;;;;;;3.30;1.00;;;;;;;;;;4985484;28;20496;-79
2023/08/23 10:25:42;;;;;;;3.70;1.10;;;;;;;;;;4978757;28;20462;-78
2023/08/23 10:28:12;;;;;;;4.10;1.10;;;;;;;;;;4963897;29;20507;-81
2023/08/23 10:30:42;;;;;;;7.27;1.90;;;;;;;;;;4984673;28;20901;-79
2023/08/23 10:33:16;;;;;;;2.77;1.20;;;;;;;;;;4984918;28;20541;-79
2023/08/23 10:35:45;;;;;;;2.20;0.80;;;;;;;;;;4984926;28;20503;-78
2023/08/23 10:38:14;;;;;;;2.47;1.00;;;;;;;;;;4983003;28;20449;-80
2023/08/23 10:40:44;;;;;;;2.90;0.90;;;;;;;;;;4983096;28;20468;-80
2023/08/23 10:43:13;;;;;;;2.80;0.90;;;;;;;;;;4983056;28;20536;-80
2023/08/23 10:45:50;;;;;;;3.37;1.03;;;;;;;;;;4986570;28;20449;-82
2023/08/23 10:48:20;;;;;;;4.33;1.47;;;;;;;;;;4980908;28;20484;-81
2023/08/23 10:50:48;;;;;;;4.33;1.77;;;;;;;;;;4986307;28;20461;-78
2023/08/23 10:53:22;;;;;;;3.30;1.20;;;;;;;;;;4981707;28;20528;-80
2023/08/23 10:55:54;;;;;;;2.67;1.20;;;;;;;;;;4981883;28;21088;-80
2023/08/23 10:58:27;;;;;;;2.73;0.90;;;;;;;;;;4986479;28;20444;-81
2023/08/23 11:01:01;;;;;;;2.57;1.00;;;;;;;;;;4981881;28;20465;-78
2023/08/23 11:03:49;;;;;;;4.40;1.83;;;;;;;;;;4980517;28;20449;-79
2023/08/23 11:06:18;;;;;;;2.50;0.90;;;;;;;;;;4983002;28;20442;-78
2023/08/23 11:08:48;;;;;;;2.80;1.07;;;;;;;;;;4982111;28;20454;-81
2023/08/23 11:11:30;;;;;;;4.60;0.87;;;;;;;;;;4978667;28;20731;-79
2023/08/23 11:14:00;;;;;;;2.97;0.90;;;;;;;;;;4977049;28;20467;-80
2023/08/23 11:16:29;;;;;;;3.30;1.80;;;;;;;;;;4980635;28;20464;-77
2023/08/23 11:18:56;;;;;;;4.77;1.43;;;;;;;;;;4982962;28;20480;-80
2023/08/23 11:21:37;;;;;;;3.93;1.13;;;;;;;;;;4983474;28;20525;-79
2023/08/23 11:24:05;;;;;;;4.27;1.33;;;;;;;;;;4976648;28;20484;-78
2023/08/23 11:26:36;;;;;;;2.93;1.00;;;;;;;;;;4972004;28;20791;-78
2023/08/23 11:29:08;;;;;;;5.00;1.30;;;;;;;;;;4973707;28;20603;-80
2023/08/23 11:31:36;;;;;;;3.17;1.23;;;;;;;;;;4973976;28;20936;-79
2023/08/23 11:34:08;;;;;;;3.63;1.23;;;;;;;;;;4976553;28;20449;-78
2023/08/23 11:36:38;;;;;;;2.70;0.97;;;;;;;;;;4980608;28;20547;-78
2023/08/23 11:39:06;;;;;;;3.03;1.37;;;;;;;;;;4982452;28;20508;-79
2023/08/23 11:41:38;;;;;;;2.67;1.17;;;;;;;;;;4981976;28;20461;-79
2023/08/23 11:44:09;;;;;;;3.50;1.17;;;;;;;;;;4981235;28;20744;-80
2023/08/23 11:46:39;;;;;;;2.20;0.80;;;;;;;;;;4980494;28;20731;-81
2023/08/23 11:49:08;;;;;;;2.40;1.27;;;;;;;;;;4982080;28;20523;-78
2023/08/23 11:51:40;;;;;;;2.90;1.40;;;;;;;;;;4981437;28;20463;-78
2023/08/23 11:54:08;;;;;;;5.03;1.70;;;;;;;;;;4948027;28;20470;-79
2023/08/23 11:56:41;;;;;;;2.80;1.20;;;;;;;;;;4958263;28;20465;-79
2023/08/23 11:59:09;;;;;;;2.20;1.00;;;;;;;;;;4973665;28;20473;-78
2023/08/23 12:01:38;;;;;;;2.37;1.03;;;;;;;;;;4962050;28;20453;-79
2023/08/23 12:04:06;;;;;;;2.30;0.90;;;;;;;;;;4973741;28;20466;-79
2023/08/23 12:06:34;;;;;;;2.17;1.13;;;;;;;;;;4962619;28;20468;-78
2023/08/23 12:09:17;;;;;;;3.57;1.70;;;;;;;;;;4964696;29;20473;-81
2023/08/23 12:11:46;;;;;;;2.67;1.00;;;;;;;;;;4958525;29;20838;-78
2023/08/23 12:14:14;;;;;;;2.70;0.90;;;;;;;;;;4968442;28;21115;-79
2023/08/23 12:16:43;;;;;;;5.83;1.50;;;;;;;;;;4963806;29;20466;-79
2023/08/23 12:19:11;;;;;;;4.20;1.80;;;;;;;;;;4960357;29;21015;-79
2023/08/23 12:21:39;;;;;;;2.50;1.00;;;;;;;;;;4963754;28;20509;-79
2023/08/23 12:24:31;;;;;;;2.40;0.83;;;;;;;;;;4964918;28;20453;-80
2023/08/23 12:27:16;;;;;;;2.50;1.13;;;;;;;;;;4953815;29;21040;-80
2023/08/23 12:29:44;;;;;;;3.53;1.40;;;;;;;;;;4953439;28;20671;-79
2023/08/23 12:32:17;;;;;;;2.93;1.50;;;;;;;;;;4964174;28;20916;-79
2023/08/23 12:34:45;;;;;;;3.07;1.87;;;;;;;;;;4956612;28;20538;-79
2023/08/23 12:37:13;;;;;;;2.60;1.40;;;;;;;;;;4959400;29;20497;-80
2023/08/23 12:39:41;;;;;;;4.20;1.67;;;;;;;;;;4967217;28;20446;-78
2023/08/23 12:42:18;;;;;;;3.90;1.90;;;;;;;;;;4964336;28;20548;-79
2023/08/23 12:44:46;;;;;;;3.70;1.63;;;;;;;;;;4948768;28;20473;-79
2023/08/23 12:47:15;;;;;;;4.17;1.70;;;;;;;;;;4955020;28;20481;-78
2023/08/23 12:49:44;;;;;;;6.43;1.83;;;;;;;;;;4967670;28;20487;-77
2023/08/23 12:52:13;;;;;;;4.37;1.83;;;;;;;;;;4972370;28;20487;-78
2023/08/23 12:54:40;;;;;;;3.07;1.73;;;;;;;;;;4987009;28;21067;-78
2023/08/23 12:57:16;;;;;;;2.87;1.50;;;;;;;;;;4979376;28;20759;-79
2023/08/23 12:59:45;;;;;;;3.07;1.60;;;;;;;;;;4981283;28;20503;-79
2023/08/23 13:02:13;;;;;;;2.93;1.60;;;;;;;;;;4980321;28;20508;-79
2023/08/23 13:04:42;;;;;;;3.47;2.00;;;;;;;;;;4980553;28;20484;-79
2023/08/23 13:07:17;;;;;;;6.33;2.10;;;;;;;;;;4980341;28;21066;-78
2023/08/23 13:09:47;;;;;;;4.50;1.80;;;;;;;;;;4986064;28;20457;-79
2023/08/23 13:15:38;;;;;;;3.20;1.67;;;;;;;;;;4989899;28;20491;-79
2023/08/23 13:18:08;;;;;;;4.23;2.47;;;;;;;;;;4970405;28;20531;-78
2023/08/23 13:20:40;;;;;;;2.90;1.73;;;;;;;;;;4970288;28;20469;-80
2023/08/23 13:23:08;;;;;;;3.57;1.77;;;;;;;;;;4976815;28;20460;-78
2023/08/23 13:25:36;;;;;;;3.50;1.80;;;;;;;;;;4981108;28;20480;-79
2023/08/23 13:28:05;;;;;;;8.53;2.70;;;;;;;;;;4983495;28;20745;-80
2023/08/23 13:30:34;;;;;;;4.30;2.00;;;;;;;;;;4984395;28;20453;-79
2023/08/23 13:33:02;;;;;;;4.53;2.77;;;;;;;;;;4983965;28;20453;-79
2023/08/23 13:35:30;;;;;;;4.07;1.87;;;;;;;;;;4979147;28;21028;-81
2023/08/23 13:38:00;;;;;;;4.17;2.03;;;;;;;;;;4976761;28;20457;-81
2023/08/23 13:40:28;;;;;;;5.90;3.80;;;;;;;;;;4982570;28;20491;-80
2023/08/23 13:42:55;;;;;;;5.97;2.43;;;;;;;;;;4983772;28;20947;-80
2023/08/23 13:45:23;;;;;;;5.33;2.73;;;;;;;;;;4979146;28;20499;-79
2023/08/23 13:47:53;;;;;;;4.30;2.60;;;;;;;;;;4972263;28;20477;-77
2023/08/23 13:50:21;;;;;;;3.50;2.60;;;;;;;;;;4975116;28;20453;-78
2023/08/23 13:52:57;;;;;;;3.80;2.40;;;;;;;;;;4982044;28;20477;-80
2023/08/23 13:55:27;;;;;;;4.30;2.60;;;;;;;;;;4981227;28;20465;-79
2023/08/23 14:08:53;;;;;;;3.97;1.90;;;;;;;;;;5016392;28;20490;-80
2023/08/23 14:11:23;;;;;;;4.00;1.93;;;;;;;;;;5021938;28;20481;-80
2023/08/23 14:14:03;;;;;;;5.53;1.57;;;;;;;;;;5023528;28;20460;-79
2023/08/23 14:16:35;;;;;;;6.93;1.77;;;;;;;;;;5007918;28;20448;-81
2023/08/23 14:19:04;;;;;;;5.13;2.50;;;;;;;;;;5022919;28;20470;-78
2023/08/23 14:21:33;;;;;;;4.03;1.83;;;;;;;;;;5019289;28;20527;-79
2023/08/23 14:24:04;;;;;;;4.23;2.50;;;;;;;;;;5021878;28;20530;-79
2023/08/23 14:26:32;;;;;;;3.07;1.70;;;;;;;;;;5010380;28;20474;-79
2023/08/23 14:29:06;;;;;;;2.87;1.60;;;;;;;;;;5017825;28;20515;-78
2023/08/23 14:31:35;;;;;;;5.13;2.17;;;;;;;;;;5023092;28;20486;-78
2023/08/23 14:34:06;;;;;;;6.40;3.27;;;;;;;;;;5021898;28;20455;-79
2023/08/23 14:36:40;;;;;;;3.37;2.20;;;;;;;;;;5020238;28;20493;-80
2023/08/23 14:39:10;;;;;;;5.20;3.20;;;;;;;;;;5017976;28;20978;-78
2023/08/23 14:41:38;;;;;;;3.80;2.47;;;;;;;;;;5015761;28;20490;-80
2023/08/23 14:44:06;;;;;;;4.33;2.40;;;;;;;;;;5016324;28;20536;-78
2023/08/23 14:46:33;;;;;;;3.47;1.90;;;;;;;;;;5019896;28;20473;-79
2023/08/23 14:49:01;;;;;;;4.63;2.57;;;;;;;;;;5020452;28;20563;-78
2023/08/23 14:51:29;;;;;;;3.50;2.03;;;;;;;;;;5017008;28;20451;-78
2023/08/23 14:54:01;;;;;;;4.03;2.10;;;;;;;;;;5019542;28;20478;-79
2023/08/23 14:56:30;;;;;;;4.10;2.40;;;;;;;;;;5017732;28;20463;-79
2023/08/23 14:58:58;;;;;;;5.57;2.87;;;;;;;;;;5019083;28;20482;-80
2023/08/23 15:01:25;;;;;;;3.53;1.90;;;;;;;;;;5020279;28;20458;-81
2023/08/23 15:03:53;;;;;;;4.40;2.20;;;;;;;;;;5019020;28;20440;-81
2023/08/23 15:06:21;;;;;;;4.03;2.03;;;;;;;;;;5024993;28;20516;-80
2023/08/23 15:08:49;;;;;;;5.60;2.53;;;;;;;;;;5021415;28;20487;-80
2023/08/23 15:11:17;;;;;;;4.37;2.80;;;;;;;;;;5023126;28;20600;-80
2023/08/23 15:13:53;;;;;;;5.67;1.93;;;;;;;;;;5024360;28;20562;-81